Linwood Park, Ohio
Current Conditions -  °F | °C
As of 2:53 PM on Sunday 21 Dec 2014 (Local Time) from KLPR Reporting Station
Clear Clear  
Wind Chill: 24°   Ceiling: Unl
Heat Index: 32°   Visibility: 7mi
Dew Point: 22°   Wind: 9mph
Humidity: 66%   Direction: 140°SE
Pressure: 30.24"   Gusts: NA
Location:  41.3884°N, 82.3643°W
Report Text: KLPR 211953Z AUTO 14008KT 7SM CLR 00/M06 A3024 RMK AO2 SLP248 T00001056 TSNO
Loading
Personal Weather Stations






























Interactive Weather Map New forecast layout! Learn more

10-Day Weather Forecast

Advertisements
Track Severe Weather on mobile